Terminal Aerodrome Forecast
Issued by NWS

Home | Current Version | Previous Version | Text Only | Print | Product List | Glossary On
Versions: 1 2 3 4 5 6 7 8 9 10 11 12 13 14
000
FTUS41 KCLE 221726
TAFFDY
TAF
KFDY 221726Z 2218/2318 22012G20KT P6SM SCT060 BKN150
     FM230300 19011KT P6SM SCT035 OVC060
     FM230600 20012KT P6SM -SHRA SCT015 OVC035
     FM231000 21012KT 6SM -SHRA VCTS SCT015CB OVC025
     FM231700 24014KT 6SM -SHRA VCTS SCT008CB OVC015=

USA.gov is the U.S. government's official web portal to all federal, state and local government web resources and services.